sensor_id;sensor_type;location;lat;lon;timestamp;P1;durP1;ratioP1;P2;durP2;ratioP2
23346;SDS011;36852;45.466;11.066;2023-05-19T00:01:30;7.95;;;2.75;;
23346;SDS011;36852;45.466;11.066;2023-05-19T00:03:58;3.02;;;2.65;;
23346;SDS011;36852;45.466;11.066;2023-05-19T00:06:29;7.45;;;3.05;;
23346;SDS011;36852;45.466;11.066;2023-05-19T00:09:03;5.47;;;2.50;;
23346;SDS011;36852;45.466;11.066;2023-05-19T00:11:34;3.98;;;2.45;;
23346;SDS011;36852;45.466;11.066;2023-05-19T00:14:05;3.60;;;2.80;;
23346;SDS011;36852;45.466;11.066;2023-05-19T00:16:44;5.65;;;2.87;;
23346;SDS011;36852;45.466;11.066;2023-05-19T00:19:12;6.20;;;2.90;;
23346;SDS011;36852;45.466;11.066;2023-05-19T00:21:41;7.17;;;2.70;;
23346;SDS011;36852;45.466;11.066;2023-05-19T00:24:08;6.70;;;2.75;;
23346;SDS011;36852;45.466;11.066;2023-05-19T00:26:36;4.67;;;2.52;;
23346;SDS011;36852;45.466;11.066;2023-05-19T00:29:05;3.08;;;2.30;;
23346;SDS011;36852;45.466;11.066;2023-05-19T00:31:33;3.62;;;2.62;;
23346;SDS011;36852;45.466;11.066;2023-05-19T00:34:00;4.83;;;3.05;;
23346;SDS011;36852;45.466;11.066;2023-05-19T00:36:28;5.85;;;2.72;;
23346;SDS011;36852;45.466;11.066;2023-05-19T00:38:56;3.90;;;2.77;;
23346;SDS011;36852;45.466;11.066;2023-05-19T00:41:23;4.33;;;2.90;;
23346;SDS011;36852;45.466;11.066;2023-05-19T00:43:52;4.10;;;2.75;;
23346;SDS011;36852;45.466;11.066;2023-05-19T00:46:20;3.67;;;2.55;;
23346;SDS011;36852;45.466;11.066;2023-05-19T00:48:49;4.12;;;2.83;;
23346;SDS011;36852;45.466;11.066;2023-05-19T00:51:16;4.72;;;3.05;;
23346;SDS011;36852;45.466;11.066;2023-05-19T00:53:45;4.60;;;2.70;;
23346;SDS011;36852;45.466;11.066;2023-05-19T00:56:15;4.97;;;3.10;;
23346;SDS011;36852;45.466;11.066;2023-05-19T00:58:44;4.90;;;3.15;;
23346;SDS011;36852;45.466;11.066;2023-05-19T01:01:13;3.20;;;2.60;;
23346;SDS011;36852;45.466;11.066;2023-05-19T01:03:45;4.35;;;2.85;;
23346;SDS011;36852;45.466;11.066;2023-05-19T01:06:14;5.80;;;2.90;;
23346;SDS011;36852;45.466;11.066;2023-05-19T01:08:44;8.53;;;3.10;;
23346;SDS011;36852;45.466;11.066;2023-05-19T01:11:12;5.47;;;3.25;;
23346;SDS011;36852;45.466;11.066;2023-05-19T01:13:40;4.35;;;3.00;;
23346;SDS011;36852;45.466;11.066;2023-05-19T01:32:35;5.67;;;3.10;;
23346;SDS011;36852;45.466;11.066;2023-05-19T01:35:04;4.53;;;2.80;;
23346;SDS011;36852;45.466;11.066;2023-05-19T01:37:35;4.05;;;3.17;;
23346;SDS011;36852;45.466;11.066;2023-05-19T01:40:08;5.92;;;3.30;;
23346;SDS011;36852;45.466;11.066;2023-05-19T01:42:37;11.65;;;3.25;;
23346;SDS011;36852;45.466;11.066;2023-05-19T01:45:07;6.08;;;3.50;;
23346;SDS011;36852;45.466;11.066;2023-05-19T01:47:40;3.85;;;3.10;;
23346;SDS011;36852;45.466;11.066;2023-05-19T01:50:09;3.15;;;2.62;;
23346;SDS011;36852;45.466;11.066;2023-05-19T01:52:37;4.62;;;3.08;;
23346;SDS011;36852;45.466;11.066;2023-05-19T01:55:07;5.00;;;2.62;;
23346;SDS011;36852;45.466;11.066;2023-05-19T01:57:49;3.65;;;2.62;;
23346;SDS011;36852;45.466;11.066;2023-05-19T02:09:17;3.10;;;2.72;;
23346;SDS011;36852;45.466;11.066;2023-05-19T02:11:11;5.10;;;3.35;;
23346;SDS011;36852;45.466;11.066;2023-05-19T02:16:10;4.45;;;3.33;;
23346;SDS011;36852;45.466;11.066;2023-05-19T02:18:39;3.92;;;3.17;;
23346;SDS011;36852;45.466;11.066;2023-05-19T02:21:08;3.83;;;3.08;;
23346;SDS011;36852;45.466;11.066;2023-05-19T02:23:39;4.33;;;3.15;;
23346;SDS011;36852;45.466;11.066;2023-05-19T02:26:08;5.70;;;3.40;;
23346;SDS011;36852;45.466;11.066;2023-05-19T02:28:36;4.33;;;2.95;;
23346;SDS011;36852;45.466;11.066;2023-05-19T02:31:03;4.90;;;3.05;;
23346;SDS011;36852;45.466;11.066;2023-05-19T02:33:34;4.85;;;3.17;;
23346;SDS011;36852;45.466;11.066;2023-05-19T02:36:02;4.72;;;3.22;;
23346;SDS011;36852;45.466;11.066;2023-05-19T02:38:30;5.22;;;3.30;;
23346;SDS011;36852;45.466;11.066;2023-05-19T02:40:58;3.52;;;3.02;;
23346;SDS011;36852;45.466;11.066;2023-05-19T02:43:26;3.42;;;2.80;;
23346;SDS011;36852;45.466;11.066;2023-05-19T02:45:56;5.78;;;3.08;;
23346;SDS011;36852;45.466;11.066;2023-05-19T02:48:25;4.85;;;3.05;;
23346;SDS011;36852;45.466;11.066;2023-05-19T02:50:55;6.00;;;3.08;;
23346;SDS011;36852;45.466;11.066;2023-05-19T02:53:23;5.92;;;3.17;;
23346;SDS011;36852;45.466;11.066;2023-05-19T02:55:51;3.67;;;2.83;;
23346;SDS011;36852;45.466;11.066;2023-05-19T02:58:19;5.87;;;3.08;;
23346;SDS011;36852;45.466;11.066;2023-05-19T03:00:47;4.50;;;2.80;;
23346;SDS011;36852;45.466;11.066;2023-05-19T03:03:15;4.60;;;3.08;;
23346;SDS011;36852;45.466;11.066;2023-05-19T03:05:43;5.60;;;3.22;;
23346;SDS011;36852;45.466;11.066;2023-05-19T03:08:11;4.20;;;2.52;;
23346;SDS011;36852;45.466;11.066;2023-05-19T03:10:39;5.45;;;3.05;;
23346;SDS011;36852;45.466;11.066;2023-05-19T03:13:09;6.33;;;3.17;;
23346;SDS011;36852;45.466;11.066;2023-05-19T03:15:38;4.35;;;3.15;;
23346;SDS011;36852;45.466;11.066;2023-05-19T03:18:07;5.42;;;2.75;;
23346;SDS011;36852;45.466;11.066;2023-05-19T03:20:35;3.80;;;2.62;;
23346;SDS011;36852;45.466;11.066;2023-05-19T03:23:05;3.85;;;2.98;;
23346;SDS011;36852;45.466;11.066;2023-05-19T03:25:35;4.58;;;3.00;;
23346;SDS011;36852;45.466;11.066;2023-05-19T03:28:03;6.47;;;3.08;;
23346;SDS011;36852;45.466;11.066;2023-05-19T03:30:32;5.37;;;2.83;;
23346;SDS011;36852;45.466;11.066;2023-05-19T03:33:02;3.87;;;2.80;;
23346;SDS011;36852;45.466;11.066;2023-05-19T03:35:31;7.42;;;3.22;;
23346;SDS011;36852;45.466;11.066;2023-05-19T03:38:03;3.87;;;2.85;;
23346;SDS011;36852;45.466;11.066;2023-05-19T03:40:30;4.70;;;3.08;;
23346;SDS011;36852;45.466;11.066;2023-05-19T03:43:00;2.92;;;2.50;;
23346;SDS011;36852;45.466;11.066;2023-05-19T03:45:31;4.28;;;3.27;;
23346;SDS011;36852;45.466;11.066;2023-05-19T03:48:01;5.30;;;3.05;;
23346;SDS011;36852;45.466;11.066;2023-05-19T03:50:31;7.60;;;3.20;;
23346;SDS011;36852;45.466;11.066;2023-05-19T03:53:02;7.42;;;2.85;;
23346;SDS011;36852;45.466;11.066;2023-05-19T03:55:32;5.12;;;2.85;;
23346;SDS011;36852;45.466;11.066;2023-05-19T03:58:00;4.33;;;2.98;;
23346;SDS011;36852;45.466;11.066;2023-05-19T04:00:29;4.37;;;3.02;;
23346;SDS011;36852;45.466;11.066;2023-05-19T04:02:57;3.70;;;2.52;;
23346;SDS011;36852;45.466;11.066;2023-05-19T04:05:29;7.03;;;3.35;;
23346;SDS011;36852;45.466;11.066;2023-05-19T04:07:58;4.70;;;2.87;;
23346;SDS011;36852;45.466;11.066;2023-05-19T04:10:27;4.85;;;3.22;;
23346;SDS011;36852;45.466;11.066;2023-05-19T04:12:56;4.85;;;3.20;;
23346;SDS011;36852;45.466;11.066;2023-05-19T04:15:25;4.95;;;2.80;;
23346;SDS011;36852;45.466;11.066;2023-05-19T04:17:55;3.92;;;3.12;;
23346;SDS011;36852;45.466;11.066;2023-05-19T04:20:23;8.70;;;3.17;;
23346;SDS011;36852;45.466;11.066;2023-05-19T04:22:51;3.50;;;3.20;;
23346;SDS011;36852;45.466;11.066;2023-05-19T04:25:19;5.05;;;3.20;;
23346;SDS011;36852;45.466;11.066;2023-05-19T04:27:47;6.70;;;3.20;;
23346;SDS011;36852;45.466;11.066;2023-05-19T04:30:15;4.65;;;2.87;;
23346;SDS011;36852;45.466;11.066;2023-05-19T04:32:44;5.90;;;3.10;;
23346;SDS011;36852;45.466;11.066;2023-05-19T04:35:13;5.33;;;3.40;;
23346;SDS011;36852;45.466;11.066;2023-05-19T04:37:43;7.45;;;3.15;;
23346;SDS011;36852;45.466;11.066;2023-05-19T04:40:16;4.20;;;3.15;;
23346;SDS011;36852;45.466;11.066;2023-05-19T04:42:44;4.53;;;3.33;;
23346;SDS011;36852;45.466;11.066;2023-05-19T04:45:12;9.73;;;3.85;;
23346;SDS011;36852;45.466;11.066;2023-05-19T04:47:42;5.65;;;3.90;;
23346;SDS011;36852;45.466;11.066;2023-05-19T04:50:10;7.80;;;3.80;;
23346;SDS011;36852;45.466;11.066;2023-05-19T04:52:40;6.05;;;3.87;;
23346;SDS011;36852;45.466;11.066;2023-05-19T04:55:08;5.45;;;3.80;;
23346;SDS011;36852;45.466;11.066;2023-05-19T04:57:37;29.10;;;7.95;;
23346;SDS011;36852;45.466;11.066;2023-05-19T05:00:06;8.83;;;3.98;;
23346;SDS011;36852;45.466;11.066;2023-05-19T05:02:38;4.97;;;3.62;;
23346;SDS011;36852;45.466;11.066;2023-05-19T05:05:06;6.83;;;3.72;;
23346;SDS011;36852;45.466;11.066;2023-05-19T05:07:36;11.55;;;4.47;;
23346;SDS011;36852;45.466;11.066;2023-05-19T05:10:07;6.55;;;4.17;;
23346;SDS011;36852;45.466;11.066;2023-05-19T05:12:36;11.30;;;3.83;;
23346;SDS011;36852;45.466;11.066;2023-05-19T05:15:05;6.58;;;3.72;;
23346;SDS011;36852;45.466;11.066;2023-05-19T05:17:34;5.15;;;3.50;;
23346;SDS011;36852;45.466;11.066;2023-05-19T05:20:04;4.35;;;3.50;;
23346;SDS011;36852;45.466;11.066;2023-05-19T05:22:33;6.90;;;3.70;;
23346;SDS011;36852;45.466;11.066;2023-05-19T05:25:01;4.50;;;3.30;;
23346;SDS011;36852;45.466;11.066;2023-05-19T05:27:30;4.25;;;3.52;;
23346;SDS011;36852;45.466;11.066;2023-05-19T05:29:59;6.83;;;3.95;;
23346;SDS011;36852;45.466;11.066;2023-05-19T05:32:31;6.90;;;3.42;;
23346;SDS011;36852;45.466;11.066;2023-05-19T05:34:59;5.70;;;3.25;;
23346;SDS011;36852;45.466;11.066;2023-05-19T05:37:29;4.78;;;3.67;;
23346;SDS011;36852;45.466;11.066;2023-05-19T05:39:57;6.15;;;3.70;;
23346;SDS011;36852;45.466;11.066;2023-05-19T05:42:25;4.83;;;3.15;;
23346;SDS011;36852;45.466;11.066;2023-05-19T05:44:55;3.90;;;3.00;;
23346;SDS011;36852;45.466;11.066;2023-05-19T05:47:25;5.22;;;3.30;;
23346;SDS011;36852;45.466;11.066;2023-05-19T05:49:54;5.30;;;3.47;;
23346;SDS011;36852;45.466;11.066;2023-05-19T05:52:26;5.78;;;3.15;;
23346;SDS011;36852;45.466;11.066;2023-05-19T05:54:58;6.40;;;2.80;;
23346;SDS011;36852;45.466;11.066;2023-05-19T05:57:27;5.92;;;3.12;;
23346;SDS011;36852;45.466;11.066;2023-05-19T05:59:56;4.90;;;2.70;;
23346;SDS011;36852;45.466;11.066;2023-05-19T06:02:24;4.15;;;2.80;;
23346;SDS011;36852;45.466;11.066;2023-05-19T06:04:53;4.33;;;2.80;;
23346;SDS011;36852;45.466;11.066;2023-05-19T06:07:21;4.25;;;3.00;;
23346;SDS011;36852;45.466;11.066;2023-05-19T06:09:50;4.12;;;2.98;;
23346;SDS011;36852;45.466;11.066;2023-05-19T06:12:19;3.60;;;3.02;;
23346;SDS011;36852;45.466;11.066;2023-05-19T06:14:46;7.87;;;3.25;;
23346;SDS011;36852;45.466;11.066;2023-05-19T06:17:25;3.67;;;3.12;;
23346;SDS011;36852;45.466;11.066;2023-05-19T06:19:53;6.08;;;3.62;;
23346;SDS011;36852;45.466;11.066;2023-05-19T06:22:21;5.75;;;3.22;;
23346;SDS011;36852;45.466;11.066;2023-05-19T06:24:48;5.08;;;3.05;;
23346;SDS011;36852;45.466;11.066;2023-05-19T06:27:18;4.08;;;3.30;;
23346;SDS011;36852;45.466;11.066;2023-05-19T06:29:46;4.42;;;2.95;;
23346;SDS011;36852;45.466;11.066;2023-05-19T06:32:13;5.12;;;3.27;;
23346;SDS011;36852;45.466;11.066;2023-05-19T06:34:41;5.75;;;3.60;;
23346;SDS011;36852;45.466;11.066;2023-05-19T06:37:09;4.80;;;4.05;;
23346;SDS011;36852;45.466;11.066;2023-05-19T06:39:37;5.92;;;3.60;;
23346;SDS011;36852;45.466;11.066;2023-05-19T06:42:05;6.40;;;3.40;;
23346;SDS011;36852;45.466;11.066;2023-05-19T06:44:51;25.30;;;5.00;;
23346;SDS011;36852;45.466;11.066;2023-05-19T06:47:19;4.65;;;3.10;;
23346;SDS011;36852;45.466;11.066;2023-05-19T06:49:47;8.18;;;3.17;;
23346;SDS011;36852;45.466;11.066;2023-05-19T06:52:21;5.00;;;3.30;;
23346;SDS011;36852;45.466;11.066;2023-05-19T06:54:50;6.30;;;3.22;;
23346;SDS011;36852;45.466;11.066;2023-05-19T06:57:18;6.85;;;3.27;;
23346;SDS011;36852;45.466;11.066;2023-05-19T07:02:34;6.35;;;3.42;;
23346;SDS011;36852;45.466;11.066;2023-05-19T07:05:02;6.37;;;3.12;;
23346;SDS011;36852;45.466;11.066;2023-05-19T07:07:34;6.50;;;3.30;;
23346;SDS011;36852;45.466;11.066;2023-05-19T07:10:02;24.70;;;5.97;;
23346;SDS011;36852;45.466;11.066;2023-05-19T07:12:31;5.97;;;3.92;;
23346;SDS011;36852;45.466;11.066;2023-05-19T07:14:59;5.87;;;2.95;;
23346;SDS011;36852;45.466;11.066;2023-05-19T07:17:27;5.92;;;3.20;;
23346;SDS011;36852;45.466;11.066;2023-05-19T07:19:57;6.87;;;3.08;;
23346;SDS011;36852;45.466;11.066;2023-05-19T07:22:26;5.12;;;3.08;;
23346;SDS011;36852;45.466;11.066;2023-05-19T07:24:54;6.87;;;3.67;;
23346;SDS011;36852;45.466;11.066;2023-05-19T07:27:23;7.65;;;2.90;;
23346;SDS011;36852;45.466;11.066;2023-05-19T07:29:52;4.95;;;3.17;;
23346;SDS011;36852;45.466;11.066;2023-05-19T07:32:25;10.65;;;3.52;;
23346;SDS011;36852;45.466;11.066;2023-05-19T07:34:53;10.25;;;3.50;;
23346;SDS011;36852;45.466;11.066;2023-05-19T07:37:21;4.70;;;3.55;;
23346;SDS011;36852;45.466;11.066;2023-05-19T07:39:49;5.55;;;2.87;;
23346;SDS011;36852;45.466;11.066;2023-05-19T07:42:17;6.28;;;3.22;;
23346;SDS011;36852;45.466;11.066;2023-05-19T07:44:45;5.47;;;3.00;;
23346;SDS011;36852;45.466;11.066;2023-05-19T07:47:13;5.40;;;3.08;;
23346;SDS011;36852;45.466;11.066;2023-05-19T07:49:41;4.40;;;3.37;;
23346;SDS011;36852;45.466;11.066;2023-05-19T07:52:08;4.67;;;3.10;;
23346;SDS011;36852;45.466;11.066;2023-05-19T07:54:36;3.52;;;2.72;;
23346;SDS011;36852;45.466;11.066;2023-05-19T07:57:04;5.05;;;3.20;;
23346;SDS011;36852;45.466;11.066;2023-05-19T07:59:33;5.08;;;2.75;;
23346;SDS011;36852;45.466;11.066;2023-05-19T08:02:02;7.97;;;3.90;;
23346;SDS011;36852;45.466;11.066;2023-05-19T08:04:30;3.77;;;2.95;;
23346;SDS011;36852;45.466;11.066;2023-05-19T08:06:58;3.15;;;2.60;;
23346;SDS011;36852;45.466;11.066;2023-05-19T08:09:26;8.20;;;3.35;;
23346;SDS011;36852;45.466;11.066;2023-05-19T08:11:54;4.87;;;2.50;;
23346;SDS011;36852;45.466;11.066;2023-05-19T08:14:21;4.58;;;3.08;;
23346;SDS011;36852;45.466;11.066;2023-05-19T08:16:50;8.73;;;3.25;;
23346;SDS011;36852;45.466;11.066;2023-05-19T08:19:17;12.13;;;3.27;;
23346;SDS011;36852;45.466;11.066;2023-05-19T08:21:46;5.08;;;2.87;;
23346;SDS011;36852;45.466;11.066;2023-05-19T08:24:15;3.45;;;2.50;;
23346;SDS011;36852;45.466;11.066;2023-05-19T08:26:43;5.17;;;2.72;;
23346;SDS011;36852;45.466;11.066;2023-05-19T08:29:12;2.95;;;2.58;;
23346;SDS011;36852;45.466;11.066;2023-05-19T08:31:41;3.45;;;2.50;;
23346;SDS011;36852;45.466;11.066;2023-05-19T08:34:09;6.35;;;2.80;;
23346;SDS011;36852;45.466;11.066;2023-05-19T08:36:37;5.33;;;2.87;;
23346;SDS011;36852;45.466;11.066;2023-05-19T08:39:05;5.03;;;2.50;;
23346;SDS011;36852;45.466;11.066;2023-05-19T08:41:33;4.12;;;2.55;;
23346;SDS011;36852;45.466;11.066;2023-05-19T08:44:06;4.40;;;2.85;;
23346;SDS011;36852;45.466;11.066;2023-05-19T08:46:34;4.50;;;2.47;;
23346;SDS011;36852;45.466;11.066;2023-05-19T08:49:10;3.33;;;2.12;;
23346;SDS011;36852;45.466;11.066;2023-05-19T08:51:42;3.30;;;2.50;;
23346;SDS011;36852;45.466;11.066;2023-05-19T08:56:44;3.00;;;2.17;;
23346;SDS011;36852;45.466;11.066;2023-05-19T08:59:13;3.85;;;2.42;;
23346;SDS011;36852;45.466;11.066;2023-05-19T09:01:44;3.10;;;2.70;;
23346;SDS011;36852;45.466;11.066;2023-05-19T09:04:14;5.22;;;2.67;;
23346;SDS011;36852;45.466;11.066;2023-05-19T09:06:43;4.12;;;2.55;;
23346;SDS011;36852;45.466;11.066;2023-05-19T09:09:11;6.85;;;3.25;;
23346;SDS011;36852;45.466;11.066;2023-05-19T09:11:39;5.20;;;2.50;;
23346;SDS011;36852;45.466;11.066;2023-05-19T09:14:07;5.95;;;3.40;;
23346;SDS011;36852;45.466;11.066;2023-05-19T09:16:35;7.40;;;3.47;;
23346;SDS011;36852;45.466;11.066;2023-05-19T09:19:04;8.63;;;3.75;;
23346;SDS011;36852;45.466;11.066;2023-05-19T09:21:33;5.15;;;3.75;;
23346;SDS011;36852;45.466;11.066;2023-05-19T09:24:05;6.15;;;4.03;;
23346;SDS011;36852;45.466;11.066;2023-05-19T09:26:38;12.35;;;5.03;;
23346;SDS011;36852;45.466;11.066;2023-05-19T09:29:14;7.12;;;4.62;;
23346;SDS011;36852;45.466;11.066;2023-05-19T09:31:52;6.92;;;4.97;;
23346;SDS011;36852;45.466;11.066;2023-05-19T09:34:21;8.00;;;5.20;;
23346;SDS011;36852;45.466;11.066;2023-05-19T09:36:51;9.88;;;5.03;;
23346;SDS011;36852;45.466;11.066;2023-05-19T09:39:23;5.97;;;4.28;;
23346;SDS011;36852;45.466;11.066;2023-05-19T09:41:52;7.03;;;3.20;;
23346;SDS011;36852;45.466;11.066;2023-05-19T09:44:24;6.08;;;3.27;;
23346;SDS011;36852;45.466;11.066;2023-05-19T09:46:58;4.15;;;3.33;;
23346;SDS011;36852;45.466;11.066;2023-05-19T09:49:27;5.62;;;3.52;;
23346;SDS011;36852;45.466;11.066;2023-05-19T09:51:57;4.70;;;3.92;;
23346;SDS011;36852;45.466;11.066;2023-05-19T09:54:27;5.20;;;3.92;;
23346;SDS011;36852;45.466;11.066;2023-05-19T09:57:02;7.47;;;3.67;;
23346;SDS011;36852;45.466;11.066;2023-05-19T09:59:34;4.80;;;3.60;;
23346;SDS011;36852;45.466;11.066;2023-05-19T10:02:04;5.53;;;3.83;;
23346;SDS011;36852;45.466;11.066;2023-05-19T10:04:34;7.12;;;4.33;;
23346;SDS011;36852;45.466;11.066;2023-05-19T10:07:03;9.63;;;4.55;;
23346;SDS011;36852;45.466;11.066;2023-05-19T10:09:32;6.75;;;3.25;;
23346;SDS011;36852;45.466;11.066;2023-05-19T10:12:02;5.47;;;3.65;;
23346;SDS011;36852;45.466;11.066;2023-05-19T10:14:31;4.87;;;3.50;;
23346;SDS011;36852;45.466;11.066;2023-05-19T10:16:59;6.28;;;4.58;;
23346;SDS011;36852;45.466;11.066;2023-05-19T10:19:27;10.32;;;4.55;;
23346;SDS011;36852;45.466;11.066;2023-05-19T10:21:57;4.53;;;3.70;;
23346;SDS011;36852;45.466;11.066;2023-05-19T10:24:26;5.10;;;4.55;;
23346;SDS011;36852;45.466;11.066;2023-05-19T10:26:55;5.17;;;3.92;;
23346;SDS011;36852;45.466;11.066;2023-05-19T10:32:17;7.35;;;4.03;;
23346;SDS011;36852;45.466;11.066;2023-05-19T10:35:34;7.00;;;3.72;;
23346;SDS011;36852;45.466;11.066;2023-05-19T10:40:28;6.40;;;4.97;;
23346;SDS011;36852;45.466;11.066;2023-05-19T10:45:54;9.15;;;4.75;;
23346;SDS011;36852;45.466;11.066;2023-05-19T10:48:23;6.97;;;4.70;;
23346;SDS011;36852;45.466;11.066;2023-05-19T10:50:52;7.08;;;4.00;;
23346;SDS011;36852;45.466;11.066;2023-05-19T10:53:21;8.75;;;5.03;;
23346;SDS011;36852;45.466;11.066;2023-05-19T10:59:29;9.45;;;4.50;;
23346;SDS011;36852;45.466;11.066;2023-05-19T11:01:14;7.20;;;4.30;;
23346;SDS011;36852;45.466;11.066;2023-05-19T11:08:58;8.05;;;4.62;;
23346;SDS011;36852;45.466;11.066;2023-05-19T11:14:21;6.55;;;4.60;;
23346;SDS011;36852;45.466;11.066;2023-05-19T11:16:55;8.95;;;5.03;;
23346;SDS011;36852;45.466;11.066;2023-05-19T11:19:31;7.37;;;5.15;;
23346;SDS011;36852;45.466;11.066;2023-05-19T11:24:49;6.85;;;4.65;;
23346;SDS011;36852;45.466;11.066;2023-05-19T11:27:32;7.80;;;5.53;;
23346;SDS011;36852;45.466;11.066;2023-05-19T11:30:10;10.40;;;4.97;;
23346;SDS011;36852;45.466;11.066;2023-05-19T11:32:49;7.00;;;4.35;;
23346;SDS011;36852;45.466;11.066;2023-05-19T11:35:17;7.50;;;4.72;;
23346;SDS011;36852;45.466;11.066;2023-05-19T11:37:47;8.23;;;5.30;;
23346;SDS011;36852;45.466;11.066;2023-05-19T11:40:17;7.78;;;5.90;;
23346;SDS011;36852;45.466;11.066;2023-05-19T11:42:45;8.55;;;5.60;;
23346;SDS011;36852;45.466;11.066;2023-05-19T11:45:13;7.72;;;5.30;;
23346;SDS011;36852;45.466;11.066;2023-05-19T11:47:44;6.75;;;5.00;;
23346;SDS011;36852;45.466;11.066;2023-05-19T11:50:14;6.22;;;4.53;;
23346;SDS011;36852;45.466;11.066;2023-05-19T11:52:54;7.70;;;3.90;;
23346;SDS011;36852;45.466;11.066;2023-05-19T11:55:24;6.53;;;4.25;;
23346;SDS011;36852;45.466;11.066;2023-05-19T12:00:28;4.62;;;3.55;;
23346;SDS011;36852;45.466;11.066;2023-05-19T12:02:59;6.17;;;3.95;;
23346;SDS011;36852;45.466;11.066;2023-05-19T12:05:28;6.87;;;3.80;;
23346;SDS011;36852;45.466;11.066;2023-05-19T12:07:59;8.73;;;4.10;;
23346;SDS011;36852;45.466;11.066;2023-05-19T12:10:27;7.95;;;3.70;;
23346;SDS011;36852;45.466;11.066;2023-05-19T12:12:57;6.75;;;4.00;;
23346;SDS011;36852;45.466;11.066;2023-05-19T12:15:26;5.62;;;4.03;;
23346;SDS011;36852;45.466;11.066;2023-05-19T12:17:58;6.12;;;3.92;;
23346;SDS011;36852;45.466;11.066;2023-05-19T12:20:28;6.05;;;4.35;;
23346;SDS011;36852;45.466;11.066;2023-05-19T12:22:59;8.33;;;4.22;;
23346;SDS011;36852;45.466;11.066;2023-05-19T12:25:28;5.92;;;4.55;;
23346;SDS011;36852;45.466;11.066;2023-05-19T12:27:59;8.53;;;5.67;;
23346;SDS011;36852;45.466;11.066;2023-05-19T12:30:31;5.67;;;3.58;;
23346;SDS011;36852;45.466;11.066;2023-05-19T12:33:00;6.40;;;4.08;;
23346;SDS011;36852;45.466;11.066;2023-05-19T12:35:30;6.95;;;4.22;;
23346;SDS011;36852;45.466;11.066;2023-05-19T12:40:34;6.37;;;4.05;;
23346;SDS011;36852;45.466;11.066;2023-05-19T12:43:05;7.42;;;4.10;;
23346;SDS011;36852;45.466;11.066;2023-05-19T12:45:38;5.58;;;3.77;;
23346;SDS011;36852;45.466;11.066;2023-05-19T12:48:05;4.37;;;3.58;;
23346;SDS011;36852;45.466;11.066;2023-05-19T12:50:38;4.20;;;3.22;;
23346;SDS011;36852;45.466;11.066;2023-05-19T12:53:07;4.45;;;3.08;;
23346;SDS011;36852;45.466;11.066;2023-05-19T12:55:38;4.78;;;3.87;;
23346;SDS011;36852;45.466;11.066;2023-05-19T12:58:08;5.67;;;3.60;;
23346;SDS011;36852;45.466;11.066;2023-05-19T13:00:41;7.92;;;3.75;;
23346;SDS011;36852;45.466;11.066;2023-05-19T13:03:15;5.15;;;3.60;;
23346;SDS011;36852;45.466;11.066;2023-05-19T13:05:44;4.78;;;3.33;;
23346;SDS011;36852;45.466;11.066;2023-05-19T13:08:19;5.80;;;3.80;;
23346;SDS011;36852;45.466;11.066;2023-05-19T13:10:50;5.83;;;3.80;;
23346;SDS011;36852;45.466;11.066;2023-05-19T13:13:18;6.50;;;3.47;;
23346;SDS011;36852;45.466;11.066;2023-05-19T13:15:46;5.10;;;3.40;;
23346;SDS011;36852;45.466;11.066;2023-05-19T13:18:18;4.53;;;3.75;;
23346;SDS011;36852;45.466;11.066;2023-05-19T13:20:46;8.90;;;3.77;;
23346;SDS011;36852;45.466;11.066;2023-05-19T13:23:17;5.92;;;4.12;;
23346;SDS011;36852;45.466;11.066;2023-05-19T13:25:45;5.50;;;3.87;;
23346;SDS011;36852;45.466;11.066;2023-05-19T13:28:13;5.15;;;3.45;;
23346;SDS011;36852;45.466;11.066;2023-05-19T13:30:42;5.30;;;3.83;;
23346;SDS011;36852;45.466;11.066;2023-05-19T13:33:10;7.40;;;3.72;;
23346;SDS011;36852;45.466;11.066;2023-05-19T13:35:38;6.33;;;3.90;;
23346;SDS011;36852;45.466;11.066;2023-05-19T13:38:06;6.08;;;3.98;;
23346;SDS011;36852;45.466;11.066;2023-05-19T13:40:38;4.83;;;3.55;;
23346;SDS011;36852;45.466;11.066;2023-05-19T13:43:06;5.33;;;3.37;;
23346;SDS011;36852;45.466;11.066;2023-05-19T13:45:34;7.12;;;3.40;;
23346;SDS011;36852;45.466;11.066;2023-05-19T13:48:04;6.12;;;3.87;;
23346;SDS011;36852;45.466;11.066;2023-05-19T13:50:33;5.58;;;3.75;;
23346;SDS011;36852;45.466;11.066;2023-05-19T13:53:01;4.03;;;3.60;;
23346;SDS011;36852;45.466;11.066;2023-05-19T13:55:33;7.05;;;3.92;;
23346;SDS011;36852;45.466;11.066;2023-05-19T13:58:01;6.65;;;3.50;;
23346;SDS011;36852;45.466;11.066;2023-05-19T14:00:30;4.17;;;3.55;;
23346;SDS011;36852;45.466;11.066;2023-05-19T14:02:59;4.40;;;3.40;;
23346;SDS011;36852;45.466;11.066;2023-05-19T14:05:27;4.53;;;2.95;;
23346;SDS011;36852;45.466;11.066;2023-05-19T14:07:57;4.47;;;3.22;;
23346;SDS011;36852;45.466;11.066;2023-05-19T14:10:27;5.45;;;3.77;;
23346;SDS011;36852;45.466;11.066;2023-05-19T14:12:55;6.28;;;4.05;;
23346;SDS011;36852;45.466;11.066;2023-05-19T14:15:26;4.87;;;3.42;;
23346;SDS011;36852;45.466;11.066;2023-05-19T14:17:55;4.83;;;2.98;;
23346;SDS011;36852;45.466;11.066;2023-05-19T14:20:23;3.87;;;2.98;;
23346;SDS011;36852;45.466;11.066;2023-05-19T14:22:53;3.95;;;3.10;;
23346;SDS011;36852;45.466;11.066;2023-05-19T14:25:21;3.95;;;3.35;;
23346;SDS011;36852;45.466;11.066;2023-05-19T14:27:49;4.58;;;2.80;;
23346;SDS011;36852;45.466;11.066;2023-05-19T14:30:17;5.05;;;3.52;;
23346;SDS011;36852;45.466;11.066;2023-05-19T14:32:45;7.20;;;3.47;;
23346;SDS011;36852;45.466;11.066;2023-05-19T14:35:13;7.30;;;3.20;;
23346;SDS011;36852;45.466;11.066;2023-05-19T14:37:41;4.15;;;3.00;;
23346;SDS011;36852;45.466;11.066;2023-05-19T14:40:10;4.10;;;3.15;;
23346;SDS011;36852;45.466;11.066;2023-05-19T14:42:39;4.42;;;3.05;;
23346;SDS011;36852;45.466;11.066;2023-05-19T14:45:07;7.78;;;3.35;;
23346;SDS011;36852;45.466;11.066;2023-05-19T14:47:36;4.70;;;3.22;;
23346;SDS011;36852;45.466;11.066;2023-05-19T14:50:04;5.50;;;2.80;;
23346;SDS011;36852;45.466;11.066;2023-05-19T14:52:35;3.62;;;3.22;;
23346;SDS011;36852;45.466;11.066;2023-05-19T14:55:03;14.83;;;11.12;;
23346;SDS011;36852;45.466;11.066;2023-05-19T14:57:31;8.20;;;6.25;;
23346;SDS011;36852;45.466;11.066;2023-05-19T14:59:59;7.20;;;4.97;;
23346;SDS011;36852;45.466;11.066;2023-05-19T15:02:27;9.75;;;5.25;;
23346;SDS011;36852;45.466;11.066;2023-05-19T15:04:55;9.73;;;4.45;;
23346;SDS011;36852;45.466;11.066;2023-05-19T15:07:23;7.90;;;4.80;;
23346;SDS011;36852;45.466;11.066;2023-05-19T15:09:52;5.45;;;3.25;;
23346;SDS011;36852;45.466;11.066;2023-05-19T15:12:20;8.45;;;3.62;;
23346;SDS011;36852;45.466;11.066;2023-05-19T15:14:48;4.72;;;2.75;;
23346;SDS011;36852;45.466;11.066;2023-05-19T15:17:16;5.30;;;3.45;;
23346;SDS011;36852;45.466;11.066;2023-05-19T15:19:45;4.15;;;3.15;;
23346;SDS011;36852;45.466;11.066;2023-05-19T15:22:13;3.33;;;2.60;;
23346;SDS011;36852;45.466;11.066;2023-05-19T15:24:41;6.08;;;3.12;;
23346;SDS011;36852;45.466;11.066;2023-05-19T15:27:09;5.90;;;3.10;;
23346;SDS011;36852;45.466;11.066;2023-05-19T15:29:37;6.45;;;2.75;;
23346;SDS011;36852;45.466;11.066;2023-05-19T15:32:05;3.75;;;2.62;;
23346;SDS011;36852;45.466;11.066;2023-05-19T15:34:34;5.20;;;3.15;;
23346;SDS011;36852;45.466;11.066;2023-05-19T15:37:02;6.95;;;3.22;;
23346;SDS011;36852;45.466;11.066;2023-05-19T15:39:31;5.17;;;2.58;;
23346;SDS011;36852;45.466;11.066;2023-05-19T15:42:00;3.37;;;2.47;;
23346;SDS011;36852;45.466;11.066;2023-05-19T15:44:28;5.03;;;2.98;;
23346;SDS011;36852;45.466;11.066;2023-05-19T15:46:56;3.77;;;2.77;;